Anton, CO

2:40 PM MDT on May 28, 2015 (GMT -0600)
Cope, Colorado | | Change Station
CLOSE
Current Station
Personal Weather Station
Location: Cope, CO
Elevation: 4423 ft
Nearby Weather Stations
Active Advisory: Severe Thunderstorm Watch

Elev 4423 ft 39.67 °N, 102.85 °W | Updated 11 minutes ago

Overcast
Overcast
72.7 °F
Feels Like 77 °F
N
1.7
Wind Variable Wind from ESE

Today
High -- | Low -- °F
--% Chance of Precip.
Yesterday
High -- | Low -- °F
Precip. -- in
5:29 AM 8:11 PM
Waxing Gibbous, 78% visible
Pressure 29.84 in
Visibility 10.0 miles
Clouds Few 4900 ft
Scattered Clouds 6000 ft
Heat Index 77 °F
Dew Point 56 °F
Humidity 55%
Rainfall 0.00 in
Snow Depth Not available.
UV 10 out of 12
Pollen 6.60 out of 12
Air Quality Not available.
Flu Activity Sporadic
METAR KAKO 281953Z AUTO 10006KT 10SM FEW049 SCT060 22/11 A2997 RMK AO2 SLP105 T02220106 $

More Conditions Fewer Conditions

Pressure 29.84 in
Visibility 10.0 miles
Clouds Few 4900 ft
Scattered Clouds 6000 ft
Heat Index 77 °F
Dew Point 56 °F
Humidity 55%
Rainfall 0.00 in
Snow Depth Not available.
UV 10 out of 12
Pollen 6.60 out of 12
Air Quality Not available.
Flu Activity Sporadic
METAR KAKO 281953Z AUTO 10006KT 10SM FEW049 SCT060 22/11 A2997 RMK AO2 SLP105 T02220106 $

More Conditions Fewer Conditions

10-Day Weather Forecast

Almanac

Astronomy

May. 28, 2015 Rise Set
Actual Time
Civil Twilight
Nautical Twilight
Astronomical Twilight
Moon
Length of Visible Light
Length of Day
Tomorrow will be .
, % of the Moon is Illuminated

Today's Extremes

State Highs State Lows

Community

WunderPhotos

Upload Photos

1,825,060 photos uploaded!

WunderBlogs® & News

Nearby

Air Quality

  Air Quality AQ Index Pollutant
Not available.

Snow Depth

Station Depth Elevation

Earthquake Activity

City Distance Mag. Time & Date
Minimum magnitude displayed is 2.5.

Coastal Water Temperatures

Place Temperature

Stations

Nearby Weather Stations

Station Location Temp. Windchill Dew Point Humidity Wind Precip. Elev Updated Type
                   
Severe Thunderstorm Watch
Statement as of 2:24 PM MDT on May 28, 2015

Severe Thunderstorm Watch 235 remains in effect until 800 PM MDT
for the following locations


Co
. Colorado counties included are

Adams Arapahoe Baca
bent Cheyenne Crowley
Elbert Kiowa Kit Carson
Las Animas Lincoln Logan
Morgan Otero Phillips
Prowers Sedgwick Washington
Weld Yuma